sensor_id;sensor_type;location;lat;lon;timestamp;P1;durP1;ratioP1;P2;durP2;ratioP2
13014;SDS011;6573;57.696;11.950;2023-03-01T00:03:02;7.03;;;4.07;;
13014;SDS011;6573;57.696;11.950;2023-03-01T00:05:34;6.40;;;4.53;;
13014;SDS011;6573;57.696;11.950;2023-03-01T00:08:13;6.00;;;4.10;;
13014;SDS011;6573;57.696;11.950;2023-03-01T00:10:42;6.53;;;3.93;;
13014;SDS011;6573;57.696;11.950;2023-03-01T00:13:11;7.33;;;4.30;;
13014;SDS011;6573;57.696;11.950;2023-03-01T00:15:41;7.10;;;4.53;;
13014;SDS011;6573;57.696;11.950;2023-03-01T00:18:13;5.97;;;4.57;;
13014;SDS011;6573;57.696;11.950;2023-03-01T00:20:48;5.20;;;3.30;;
13014;SDS011;6573;57.696;11.950;2023-03-01T00:23:21;4.87;;;3.80;;
13014;SDS011;6573;57.696;11.950;2023-03-01T00:25:53;6.90;;;4.33;;
13014;SDS011;6573;57.696;11.950;2023-03-01T00:28:22;5.83;;;4.17;;
13014;SDS011;6573;57.696;11.950;2023-03-01T00:31:08;9.13;;;4.33;;
13014;SDS011;6573;57.696;11.950;2023-03-01T00:33:41;6.10;;;4.27;;
13014;SDS011;6573;57.696;11.950;2023-03-01T00:36:10;7.60;;;4.73;;
13014;SDS011;6573;57.696;11.950;2023-03-01T00:38:43;6.30;;;4.73;;
13014;SDS011;6573;57.696;11.950;2023-03-01T00:41:16;5.33;;;4.40;;
13014;SDS011;6573;57.696;11.950;2023-03-01T00:43:52;6.97;;;4.40;;
13014;SDS011;6573;57.696;11.950;2023-03-01T00:46:24;8.27;;;4.60;;
13014;SDS011;6573;57.696;11.950;2023-03-01T00:49:02;7.47;;;4.50;;
13014;SDS011;6573;57.696;11.950;2023-03-01T00:51:34;6.37;;;4.00;;
13014;SDS011;6573;57.696;11.950;2023-03-01T00:54:06;7.07;;;4.30;;
13014;SDS011;6573;57.696;11.950;2023-03-01T00:56:40;6.40;;;4.43;;
13014;SDS011;6573;57.696;11.950;2023-03-01T00:59:14;6.00;;;4.30;;
13014;SDS011;6573;57.696;11.950;2023-03-01T01:01:43;5.53;;;4.57;;
13014;SDS011;6573;57.696;11.950;2023-03-01T01:04:12;5.67;;;4.23;;
13014;SDS011;6573;57.696;11.950;2023-03-01T01:06:42;5.07;;;3.93;;
13014;SDS011;6573;57.696;11.950;2023-03-01T01:09:18;7.23;;;4.27;;
13014;SDS011;6573;57.696;11.950;2023-03-01T01:11:48;7.40;;;3.97;;
13014;SDS011;6573;57.696;11.950;2023-03-01T01:14:20;4.73;;;3.83;;
13014;SDS011;6573;57.696;11.950;2023-03-01T01:16:53;5.07;;;4.03;;
13014;SDS011;6573;57.696;11.950;2023-03-01T01:19:22;5.47;;;4.20;;
13014;SDS011;6573;57.696;11.950;2023-03-01T01:21:54;6.63;;;4.00;;
13014;SDS011;6573;57.696;11.950;2023-03-01T01:24:28;5.23;;;4.13;;
13014;SDS011;6573;57.696;11.950;2023-03-01T01:27:04;6.40;;;4.47;;
13014;SDS011;6573;57.696;11.950;2023-03-01T01:29:48;6.47;;;4.20;;
13014;SDS011;6573;57.696;11.950;2023-03-01T01:32:31;7.07;;;3.97;;
13014;SDS011;6573;57.696;11.950;2023-03-01T01:34:59;7.90;;;4.20;;
13014;SDS011;6573;57.696;11.950;2023-03-01T01:37:28;12.37;;;6.40;;
13014;SDS011;6573;57.696;11.950;2023-03-01T01:40:00;7.33;;;5.43;;
13014;SDS011;6573;57.696;11.950;2023-03-01T01:42:31;5.37;;;4.43;;
13014;SDS011;6573;57.696;11.950;2023-03-01T01:47:57;5.07;;;3.80;;
13014;SDS011;6573;57.696;11.950;2023-03-01T01:50:28;5.17;;;4.20;;
13014;SDS011;6573;57.696;11.950;2023-03-01T01:53:05;5.20;;;3.80;;
13014;SDS011;6573;57.696;11.950;2023-03-01T01:55:41;6.10;;;4.23;;
13014;SDS011;6573;57.696;11.950;2023-03-01T01:58:13;6.07;;;4.30;;
13014;SDS011;6573;57.696;11.950;2023-03-01T02:00:45;5.27;;;4.03;;
13014;SDS011;6573;57.696;11.950;2023-03-01T02:03:17;6.83;;;4.40;;
13014;SDS011;6573;57.696;11.950;2023-03-01T02:05:50;8.20;;;4.70;;
13014;SDS011;6573;57.696;11.950;2023-03-01T02:08:26;5.23;;;4.40;;
13014;SDS011;6573;57.696;11.950;2023-03-01T02:11:02;6.83;;;4.63;;
13014;SDS011;6573;57.696;11.950;2023-03-01T02:13:32;7.20;;;5.13;;
13014;SDS011;6573;57.696;11.950;2023-03-01T02:16:02;7.67;;;5.00;;
13014;SDS011;6573;57.696;11.950;2023-03-01T02:18:32;6.17;;;4.50;;
13014;SDS011;6573;57.696;11.950;2023-03-01T02:21:05;5.33;;;4.33;;
13014;SDS011;6573;57.696;11.950;2023-03-01T02:23:45;7.00;;;4.10;;
13014;SDS011;6573;57.696;11.950;2023-03-01T02:26:18;6.20;;;4.40;;
13014;SDS011;6573;57.696;11.950;2023-03-01T02:29:02;5.97;;;4.50;;
13014;SDS011;6573;57.696;11.950;2023-03-01T02:31:35;6.37;;;4.30;;
13014;SDS011;6573;57.696;11.950;2023-03-01T02:34:12;6.57;;;4.80;;
13014;SDS011;6573;57.696;11.950;2023-03-01T02:36:44;7.33;;;5.10;;
13014;SDS011;6573;57.696;11.950;2023-03-01T02:39:16;8.93;;;4.90;;
13014;SDS011;6573;57.696;11.950;2023-03-01T02:41:49;7.53;;;4.70;;
13014;SDS011;6573;57.696;11.950;2023-03-01T02:44:22;8.20;;;5.20;;
13014;SDS011;6573;57.696;11.950;2023-03-01T02:46:51;11.87;;;5.33;;
13014;SDS011;6573;57.696;11.950;2023-03-01T02:49:22;9.07;;;5.10;;
13014;SDS011;6573;57.696;11.950;2023-03-01T02:54:50;9.37;;;5.07;;
13014;SDS011;6573;57.696;11.950;2023-03-01T02:57:26;10.37;;;5.17;;
13014;SDS011;6573;57.696;11.950;2023-03-01T03:00:02;12.83;;;5.30;;
13014;SDS011;6573;57.696;11.950;2023-03-01T03:02:35;12.50;;;5.47;;
13014;SDS011;6573;57.696;11.950;2023-03-01T03:05:06;10.10;;;5.67;;
13014;SDS011;6573;57.696;11.950;2023-03-01T03:07:38;13.30;;;5.50;;
13014;SDS011;6573;57.696;11.950;2023-03-01T03:10:09;9.50;;;5.27;;
13014;SDS011;6573;57.696;11.950;2023-03-01T03:12:39;8.20;;;5.73;;
13014;SDS011;6573;57.696;11.950;2023-03-01T03:15:10;8.30;;;5.00;;
13014;SDS011;6573;57.696;11.950;2023-03-01T03:17:40;7.13;;;5.10;;
13014;SDS011;6573;57.696;11.950;2023-03-01T03:20:12;6.47;;;5.10;;
13014;SDS011;6573;57.696;11.950;2023-03-01T03:22:45;6.40;;;4.90;;
13014;SDS011;6573;57.696;11.950;2023-03-01T03:25:15;8.13;;;4.97;;
13014;SDS011;6573;57.696;11.950;2023-03-01T03:27:45;7.03;;;5.00;;
13014;SDS011;6573;57.696;11.950;2023-03-01T03:30:21;7.60;;;4.23;;
13014;SDS011;6573;57.696;11.950;2023-03-01T03:32:51;6.13;;;4.40;;
13014;SDS011;6573;57.696;11.950;2023-03-01T03:35:21;6.87;;;4.67;;
13014;SDS011;6573;57.696;11.950;2023-03-01T03:37:51;6.33;;;4.37;;
13014;SDS011;6573;57.696;11.950;2023-03-01T03:40:33;5.17;;;4.03;;
13014;SDS011;6573;57.696;11.950;2023-03-01T03:43:04;5.07;;;4.10;;
13014;SDS011;6573;57.696;11.950;2023-03-01T03:45:43;6.43;;;4.37;;
13014;SDS011;6573;57.696;11.950;2023-03-01T03:48:12;8.10;;;4.30;;
13014;SDS011;6573;57.696;11.950;2023-03-01T03:50:46;6.33;;;4.20;;
13014;SDS011;6573;57.696;11.950;2023-03-01T03:53:16;7.87;;;5.17;;
13014;SDS011;6573;57.696;11.950;2023-03-01T03:55:46;11.20;;;4.93;;
13014;SDS011;6573;57.696;11.950;2023-03-01T03:58:16;8.63;;;4.97;;
13014;SDS011;6573;57.696;11.950;2023-03-01T04:00:49;6.90;;;4.93;;
13014;SDS011;6573;57.696;11.950;2023-03-01T04:03:19;8.20;;;4.67;;
13014;SDS011;6573;57.696;11.950;2023-03-01T04:05:49;8.37;;;4.93;;
13014;SDS011;6573;57.696;11.950;2023-03-01T04:08:20;7.53;;;4.87;;
13014;SDS011;6573;57.696;11.950;2023-03-01T04:10:50;8.53;;;5.13;;
13014;SDS011;6573;57.696;11.950;2023-03-01T04:13:24;6.90;;;4.90;;
13014;SDS011;6573;57.696;11.950;2023-03-01T04:15:54;6.73;;;4.70;;
13014;SDS011;6573;57.696;11.950;2023-03-01T04:18:23;7.20;;;4.63;;
13014;SDS011;6573;57.696;11.950;2023-03-01T04:20:52;6.30;;;4.23;;
13014;SDS011;6573;57.696;11.950;2023-03-01T04:23:24;7.10;;;4.73;;
13014;SDS011;6573;57.696;11.950;2023-03-01T04:25:54;6.10;;;4.27;;
13014;SDS011;6573;57.696;11.950;2023-03-01T04:28:25;6.47;;;4.10;;
13014;SDS011;6573;57.696;11.950;2023-03-01T04:31:01;9.93;;;4.23;;
13014;SDS011;6573;57.696;11.950;2023-03-01T04:33:42;4.73;;;3.80;;
13014;SDS011;6573;57.696;11.950;2023-03-01T04:36:13;7.33;;;3.80;;
13014;SDS011;6573;57.696;11.950;2023-03-01T04:38:44;5.90;;;4.10;;
13014;SDS011;6573;57.696;11.950;2023-03-01T04:41:14;6.63;;;4.30;;
13014;SDS011;6573;57.696;11.950;2023-03-01T04:43:43;6.07;;;4.00;;
13014;SDS011;6573;57.696;11.950;2023-03-01T04:46:15;5.97;;;4.10;;
13014;SDS011;6573;57.696;11.950;2023-03-01T04:48:45;6.40;;;4.07;;
13014;SDS011;6573;57.696;11.950;2023-03-01T04:51:15;5.03;;;4.40;;
13014;SDS011;6573;57.696;11.950;2023-03-01T04:53:45;6.97;;;3.77;;
13014;SDS011;6573;57.696;11.950;2023-03-01T04:56:13;5.37;;;4.20;;
13014;SDS011;6573;57.696;11.950;2023-03-01T04:58:45;6.53;;;3.93;;
13014;SDS011;6573;57.696;11.950;2023-03-01T05:01:17;4.67;;;3.57;;
13014;SDS011;6573;57.696;11.950;2023-03-01T05:03:48;5.60;;;3.83;;
13014;SDS011;6573;57.696;11.950;2023-03-01T05:06:19;4.90;;;3.60;;
13014;SDS011;6573;57.696;11.950;2023-03-01T05:08:49;7.23;;;3.80;;
13014;SDS011;6573;57.696;11.950;2023-03-01T05:11:18;6.80;;;3.60;;
13014;SDS011;6573;57.696;11.950;2023-03-01T05:13:47;5.37;;;4.03;;
13014;SDS011;6573;57.696;11.950;2023-03-01T05:16:19;5.17;;;3.93;;
13014;SDS011;6573;57.696;11.950;2023-03-01T05:18:49;7.10;;;4.27;;
13014;SDS011;6573;57.696;11.950;2023-03-01T05:21:18;5.53;;;3.97;;
13014;SDS011;6573;57.696;11.950;2023-03-01T05:23:46;6.10;;;3.80;;
13014;SDS011;6573;57.696;11.950;2023-03-01T05:26:15;9.03;;;4.87;;
13014;SDS011;6573;57.696;11.950;2023-03-01T05:28:54;7.80;;;4.00;;
13014;SDS011;6573;57.696;11.950;2023-03-01T05:31:27;7.60;;;4.00;;
13014;SDS011;6573;57.696;11.950;2023-03-01T05:34:01;6.60;;;4.23;;
13014;SDS011;6573;57.696;11.950;2023-03-01T05:36:30;6.77;;;4.10;;
13014;SDS011;6573;57.696;11.950;2023-03-01T05:38:59;5.67;;;4.23;;
13014;SDS011;6573;57.696;11.950;2023-03-01T05:41:27;7.60;;;4.27;;
13014;SDS011;6573;57.696;11.950;2023-03-01T05:43:56;9.63;;;4.57;;
13014;SDS011;6573;57.696;11.950;2023-03-01T05:46:24;13.20;;;4.70;;
13014;SDS011;6573;57.696;11.950;2023-03-01T05:48:59;4.93;;;4.03;;
13014;SDS011;6573;57.696;11.950;2023-03-01T05:51:29;6.33;;;4.30;;
13014;SDS011;6573;57.696;11.950;2023-03-01T05:53:58;7.90;;;4.70;;
13014;SDS011;6573;57.696;11.950;2023-03-01T05:56:26;6.33;;;4.00;;
13014;SDS011;6573;57.696;11.950;2023-03-01T05:58:56;8.70;;;4.80;;
13014;SDS011;6573;57.696;11.950;2023-03-01T06:01:25;7.97;;;4.77;;
13014;SDS011;6573;57.696;11.950;2023-03-01T06:04:00;6.23;;;4.40;;
13014;SDS011;6573;57.696;11.950;2023-03-01T06:06:29;8.73;;;4.40;;
13014;SDS011;6573;57.696;11.950;2023-03-01T06:08:57;11.53;;;4.70;;
13014;SDS011;6573;57.696;11.950;2023-03-01T06:11:26;11.47;;;4.90;;
13014;SDS011;6573;57.696;11.950;2023-03-01T06:13:54;13.60;;;4.53;;
13014;SDS011;6573;57.696;11.950;2023-03-01T06:16:23;9.67;;;4.70;;
13014;SDS011;6573;57.696;11.950;2023-03-01T06:18:52;8.67;;;4.60;;
13014;SDS011;6573;57.696;11.950;2023-03-01T06:21:23;12.13;;;4.30;;
13014;SDS011;6573;57.696;11.950;2023-03-01T06:23:52;11.90;;;4.47;;
13014;SDS011;6573;57.696;11.950;2023-03-01T06:26:23;11.00;;;4.43;;
13014;SDS011;6573;57.696;11.950;2023-03-01T06:28:52;7.47;;;4.40;;
13014;SDS011;6573;57.696;11.950;2023-03-01T06:31:20;8.93;;;4.70;;
13014;SDS011;6573;57.696;11.950;2023-03-01T06:33:49;13.67;;;6.07;;
13014;SDS011;6573;57.696;11.950;2023-03-01T06:36:18;14.67;;;6.37;;
13014;SDS011;6573;57.696;11.950;2023-03-01T06:38:49;14.23;;;6.37;;
13014;SDS011;6573;57.696;11.950;2023-03-01T06:41:21;11.23;;;5.97;;
13014;SDS011;6573;57.696;11.950;2023-03-01T06:43:50;11.50;;;5.87;;
13014;SDS011;6573;57.696;11.950;2023-03-01T06:46:21;11.43;;;5.60;;
13014;SDS011;6573;57.696;11.950;2023-03-01T06:48:50;9.30;;;5.80;;
13014;SDS011;6573;57.696;11.950;2023-03-01T06:51:18;14.17;;;6.30;;
13014;SDS011;6573;57.696;11.950;2023-03-01T06:53:47;11.50;;;5.63;;
13014;SDS011;6573;57.696;11.950;2023-03-01T06:56:18;15.73;;;5.80;;
13014;SDS011;6573;57.696;11.950;2023-03-01T06:58:46;13.23;;;5.70;;
13014;SDS011;6573;57.696;11.950;2023-03-01T07:01:15;12.70;;;5.83;;
13014;SDS011;6573;57.696;11.950;2023-03-01T07:03:43;15.73;;;5.53;;
13014;SDS011;6573;57.696;11.950;2023-03-01T07:06:12;12.40;;;5.53;;
13014;SDS011;6573;57.696;11.950;2023-03-01T07:08:41;11.70;;;4.90;;
13014;SDS011;6573;57.696;11.950;2023-03-01T07:11:11;11.63;;;4.60;;
13014;SDS011;6573;57.696;11.950;2023-03-01T07:13:39;12.13;;;5.33;;
13014;SDS011;6573;57.696;11.950;2023-03-01T07:16:08;17.53;;;5.77;;
13014;SDS011;6573;57.696;11.950;2023-03-01T07:18:37;9.97;;;4.07;;
13014;SDS011;6573;57.696;11.950;2023-03-01T07:21:05;8.47;;;3.73;;
13014;SDS011;6573;57.696;11.950;2023-03-01T07:23:35;10.00;;;3.90;;
13014;SDS011;6573;57.696;11.950;2023-03-01T07:26:04;7.87;;;3.57;;
13014;SDS011;6573;57.696;11.950;2023-03-01T07:28:34;11.27;;;4.30;;
13014;SDS011;6573;57.696;11.950;2023-03-01T07:31:05;8.77;;;3.80;;
13014;SDS011;6573;57.696;11.950;2023-03-01T07:33:35;7.50;;;4.07;;
13014;SDS011;6573;57.696;11.950;2023-03-01T07:36:04;9.67;;;3.63;;
13014;SDS011;6573;57.696;11.950;2023-03-01T07:38:34;11.13;;;4.33;;
13014;SDS011;6573;57.696;11.950;2023-03-01T07:41:03;13.53;;;4.33;;
13014;SDS011;6573;57.696;11.950;2023-03-01T07:43:36;6.30;;;3.80;;
13014;SDS011;6573;57.696;11.950;2023-03-01T07:46:04;8.10;;;3.83;;
13014;SDS011;6573;57.696;11.950;2023-03-01T07:48:33;6.67;;;3.20;;
13014;SDS011;6573;57.696;11.950;2023-03-01T07:51:03;8.40;;;3.53;;
13014;SDS011;6573;57.696;11.950;2023-03-01T07:53:33;10.00;;;3.23;;
13014;SDS011;6573;57.696;11.950;2023-03-01T07:56:03;6.10;;;3.10;;
13014;SDS011;6573;57.696;11.950;2023-03-01T07:58:39;5.87;;;3.30;;
13014;SDS011;6573;57.696;11.950;2023-03-01T08:01:11;7.43;;;2.60;;
13014;SDS011;6573;57.696;11.950;2023-03-01T08:03:41;6.03;;;2.57;;
13014;SDS011;6573;57.696;11.950;2023-03-01T08:06:12;6.17;;;2.60;;
13014;SDS011;6573;57.696;11.950;2023-03-01T08:08:41;5.60;;;2.70;;
13014;SDS011;6573;57.696;11.950;2023-03-01T08:11:10;5.53;;;2.87;;
13014;SDS011;6573;57.696;11.950;2023-03-01T08:13:42;4.57;;;2.30;;
13014;SDS011;6573;57.696;11.950;2023-03-01T08:16:12;8.70;;;3.20;;
13014;SDS011;6573;57.696;11.950;2023-03-01T08:18:41;6.30;;;2.47;;
13014;SDS011;6573;57.696;11.950;2023-03-01T08:21:11;5.70;;;2.80;;
13014;SDS011;6573;57.696;11.950;2023-03-01T08:23:42;4.77;;;2.10;;
13014;SDS011;6573;57.696;11.950;2023-03-01T08:26:12;7.00;;;2.30;;
13014;SDS011;6573;57.696;11.950;2023-03-01T08:28:45;4.40;;;2.20;;
13014;SDS011;6573;57.696;11.950;2023-03-01T08:31:17;4.57;;;2.00;;
13014;SDS011;6573;57.696;11.950;2023-03-01T08:33:51;6.03;;;1.83;;
13014;SDS011;6573;57.696;11.950;2023-03-01T08:36:23;3.73;;;1.90;;
13014;SDS011;6573;57.696;11.950;2023-03-01T08:38:52;5.30;;;1.80;;
13014;SDS011;6573;57.696;11.950;2023-03-01T08:41:21;3.27;;;1.60;;
13014;SDS011;6573;57.696;11.950;2023-03-01T08:43:51;4.30;;;2.00;;
13014;SDS011;6573;57.696;11.950;2023-03-01T08:46:25;2.20;;;1.50;;
13014;SDS011;6573;57.696;11.950;2023-03-01T08:48:55;2.83;;;1.70;;
13014;SDS011;6573;57.696;11.950;2023-03-01T08:51:24;4.43;;;1.83;;
13014;SDS011;6573;57.696;11.950;2023-03-01T08:53:54;2.20;;;1.50;;
13014;SDS011;6573;57.696;11.950;2023-03-01T08:56:22;2.77;;;1.50;;
13014;SDS011;6573;57.696;11.950;2023-03-01T08:58:52;1.73;;;1.33;;
13014;SDS011;6573;57.696;11.950;2023-03-01T09:01:21;2.17;;;1.50;;
13014;SDS011;6573;57.696;11.950;2023-03-01T09:03:49;1.67;;;1.33;;
13014;SDS011;6573;57.696;11.950;2023-03-01T09:06:17;3.10;;;1.20;;
13014;SDS011;6573;57.696;11.950;2023-03-01T09:08:47;2.37;;;1.20;;
13014;SDS011;6573;57.696;11.950;2023-03-01T09:11:18;4.87;;;1.23;;
13014;SDS011;6573;57.696;11.950;2023-03-01T09:13:48;2.83;;;1.30;;
13014;SDS011;6573;57.696;11.950;2023-03-01T09:16:19;1.80;;;1.17;;
13014;SDS011;6573;57.696;11.950;2023-03-01T09:18:50;2.00;;;1.47;;
13014;SDS011;6573;57.696;11.950;2023-03-01T09:21:19;2.73;;;1.13;;
13014;SDS011;6573;57.696;11.950;2023-03-01T09:24:05;2.73;;;1.10;;
13014;SDS011;6573;57.696;11.950;2023-03-01T09:26:35;5.30;;;1.60;;
13014;SDS011;6573;57.696;11.950;2023-03-01T09:29:03;3.03;;;1.17;;
13014;SDS011;6573;57.696;11.950;2023-03-01T09:31:33;2.77;;;1.20;;
13014;SDS011;6573;57.696;11.950;2023-03-01T09:34:01;1.97;;;1.30;;
13014;SDS011;6573;57.696;11.950;2023-03-01T09:36:29;1.93;;;1.27;;
13014;SDS011;6573;57.696;11.950;2023-03-01T09:38:58;3.70;;;1.40;;
13014;SDS011;6573;57.696;11.950;2023-03-01T09:41:36;1.57;;;0.90;;
13014;SDS011;6573;57.696;11.950;2023-03-01T09:44:27;1.53;;;1.00;;
13014;SDS011;6573;57.696;11.950;2023-03-01T09:47:04;4.10;;;1.20;;
13014;SDS011;6573;57.696;11.950;2023-03-01T09:49:33;2.70;;;0.90;;
13014;SDS011;6573;57.696;11.950;2023-03-01T09:52:09;1.43;;;1.00;;
13014;SDS011;6573;57.696;11.950;2023-03-01T09:54:48;2.00;;;1.03;;
13014;SDS011;6573;57.696;11.950;2023-03-01T09:57:27;5.93;;;1.20;;
13014;SDS011;6573;57.696;11.950;2023-03-01T10:00:12;1.53;;;1.00;;
13014;SDS011;6573;57.696;11.950;2023-03-01T10:02:51;3.03;;;1.23;;
13014;SDS011;6573;57.696;11.950;2023-03-01T10:05:31;5.23;;;1.20;;
13014;SDS011;6573;57.696;11.950;2023-03-01T10:08:23;3.83;;;1.70;;
13014;SDS011;6573;57.696;11.950;2023-03-01T10:10:57;4.20;;;1.80;;
13014;SDS011;6573;57.696;11.950;2023-03-01T10:13:28;3.60;;;1.10;;
13014;SDS011;6573;57.696;11.950;2023-03-01T10:16:03;2.57;;;0.90;;
13014;SDS011;6573;57.696;11.950;2023-03-01T10:18:39;3.73;;;1.17;;
13014;SDS011;6573;57.696;11.950;2023-03-01T10:21:12;2.53;;;1.10;;
13014;SDS011;6573;57.696;11.950;2023-03-01T10:23:43;9.57;;;1.47;;
13014;SDS011;6573;57.696;11.950;2023-03-01T10:26:16;3.23;;;1.10;;
13014;SDS011;6573;57.696;11.950;2023-03-01T10:28:58;8.63;;;1.27;;
13014;SDS011;6573;57.696;11.950;2023-03-01T10:31:35;4.87;;;1.33;;
13014;SDS011;6573;57.696;11.950;2023-03-01T10:34:11;4.20;;;1.07;;
13014;SDS011;6573;57.696;11.950;2023-03-01T10:36:42;9.00;;;1.30;;
13014;SDS011;6573;57.696;11.950;2023-03-01T10:39:13;3.03;;;1.30;;
13014;SDS011;6573;57.696;11.950;2023-03-01T10:42:00;3.93;;;1.20;;
13014;SDS011;6573;57.696;11.950;2023-03-01T10:44:37;5.07;;;1.80;;
13014;SDS011;6573;57.696;11.950;2023-03-01T10:47:13;14.33;;;2.53;;
13014;SDS011;6573;57.696;11.950;2023-03-01T10:49:52;23.03;;;5.53;;
13014;SDS011;6573;57.696;11.950;2023-03-01T10:52:25;12.10;;;1.63;;
13014;SDS011;6573;57.696;11.950;2023-03-01T10:54:57;6.57;;;1.70;;
13014;SDS011;6573;57.696;11.950;2023-03-01T10:57:37;4.77;;;1.53;;
13014;SDS011;6573;57.696;11.950;2023-03-01T11:00:14;4.80;;;1.50;;
13014;SDS011;6573;57.696;11.950;2023-03-01T11:03:10;9.57;;;1.70;;
13014;SDS011;6573;57.696;11.950;2023-03-01T11:05:54;7.57;;;1.73;;
13014;SDS011;6573;57.696;11.950;2023-03-01T11:08:34;8.27;;;1.37;;
13014;SDS011;6573;57.696;11.950;2023-03-01T11:11:05;20.23;;;2.83;;
13014;SDS011;6573;57.696;11.950;2023-03-01T11:13:57;9.70;;;1.50;;
13014;SDS011;6573;57.696;11.950;2023-03-01T11:16:42;9.67;;;1.60;;
13014;SDS011;6573;57.696;11.950;2023-03-01T11:19:14;13.77;;;1.73;;
13014;SDS011;6573;57.696;11.950;2023-03-01T11:24:41;9.23;;;3.63;;
13014;SDS011;6573;57.696;11.950;2023-03-01T11:27:17;12.63;;;2.40;;
13014;SDS011;6573;57.696;11.950;2023-03-01T11:29:51;9.63;;;1.73;;
13014;SDS011;6573;57.696;11.950;2023-03-01T11:32:24;9.47;;;1.60;;
13014;SDS011;6573;57.696;11.950;2023-03-01T11:34:59;3.60;;;1.50;;
13014;SDS011;6573;57.696;11.950;2023-03-01T11:37:34;6.27;;;1.27;;
13014;SDS011;6573;57.696;11.950;2023-03-01T11:40:10;8.77;;;1.30;;
13014;SDS011;6573;57.696;11.950;2023-03-01T11:42:53;4.83;;;1.40;;
13014;SDS011;6573;57.696;11.950;2023-03-01T11:45:31;7.10;;;1.63;;
13014;SDS011;6573;57.696;11.950;2023-03-01T11:48:13;40.30;;;3.67;;
13014;SDS011;6573;57.696;11.950;2023-03-01T11:51:02;42.90;;;3.43;;
13014;SDS011;6573;57.696;11.950;2023-03-01T11:53:50;8.77;;;1.50;;
13014;SDS011;6573;57.696;11.950;2023-03-01T11:56:29;6.63;;;1.50;;
13014;SDS011;6573;57.696;11.950;2023-03-01T11:59:13;6.67;;;1.53;;
13014;SDS011;6573;57.696;11.950;2023-03-01T12:02:12;59.63;;;3.67;;
13014;SDS011;6573;57.696;11.950;2023-03-01T12:05:00;3.47;;;1.13;;
13014;SDS011;6573;57.696;11.950;2023-03-01T12:07:44;7.23;;;2.07;;
13014;SDS011;6573;57.696;11.950;2023-03-01T12:10:23;4.30;;;1.10;;
13014;SDS011;6573;57.696;11.950;2023-03-01T12:12:58;8.53;;;1.13;;
13014;SDS011;6573;57.696;11.950;2023-03-01T12:15:50;11.33;;;1.70;;
13014;SDS011;6573;57.696;11.950;2023-03-01T12:18:41;6.60;;;1.10;;
13014;SDS011;6573;57.696;11.950;2023-03-01T12:21:30;6.07;;;1.00;;
13014;SDS011;6573;57.696;11.950;2023-03-01T12:24:13;8.40;;;1.57;;
13014;SDS011;6573;57.696;11.950;2023-03-01T12:27:05;7.57;;;1.30;;
13014;SDS011;6573;57.696;11.950;2023-03-01T12:29:50;10.97;;;1.80;;
13014;SDS011;6573;57.696;11.950;2023-03-01T12:32:35;8.30;;;1.07;;
13014;SDS011;6573;57.696;11.950;2023-03-01T12:35:25;4.17;;;1.27;;
13014;SDS011;6573;57.696;11.950;2023-03-01T12:38:11;5.27;;;1.90;;
13014;SDS011;6573;57.696;11.950;2023-03-01T12:41:06;8.87;;;2.10;;
13014;SDS011;6573;57.696;11.950;2023-03-01T12:43:54;18.23;;;1.97;;
13014;SDS011;6573;57.696;11.950;2023-03-01T12:46:32;5.73;;;1.10;;
13014;SDS011;6573;57.696;11.950;2023-03-01T12:49:20;5.87;;;1.27;;
13014;SDS011;6573;57.696;11.950;2023-03-01T12:51:54;5.90;;;1.10;;
13014;SDS011;6573;57.696;11.950;2023-03-01T12:54:27;2.80;;;0.90;;
13014;SDS011;6573;57.696;11.950;2023-03-01T12:56:59;30.20;;;2.33;;
13014;SDS011;6573;57.696;11.950;2023-03-01T12:59:39;6.40;;;1.40;;
13014;SDS011;6573;57.696;11.950;2023-03-01T13:02:14;3.10;;;1.10;;
13014;SDS011;6573;57.696;11.950;2023-03-01T13:04:53;7.00;;;1.40;;
13014;SDS011;6573;57.696;11.950;2023-03-01T13:07:35;5.57;;;1.00;;
13014;SDS011;6573;57.696;11.950;2023-03-01T13:10:16;6.37;;;1.13;;
13014;SDS011;6573;57.696;11.950;2023-03-01T13:12:52;4.03;;;1.10;;
13014;SDS011;6573;57.696;11.950;2023-03-01T13:15:34;7.67;;;1.30;;
13014;SDS011;6573;57.696;11.950;2023-03-01T13:18:26;8.53;;;1.40;;
13014;SDS011;6573;57.696;11.950;2023-03-01T13:20:59;7.23;;;1.47;;
13014;SDS011;6573;57.696;11.950;2023-03-01T13:23:31;14.30;;;1.50;;
13014;SDS011;6573;57.696;11.950;2023-03-01T13:26:04;6.03;;;1.20;;
13014;SDS011;6573;57.696;11.950;2023-03-01T13:28:53;7.77;;;1.50;;
13014;SDS011;6573;57.696;11.950;2023-03-01T13:34:46;8.87;;;1.20;;
13014;SDS011;6573;57.696;11.950;2023-03-01T13:37:23;9.23;;;1.30;;
13014;SDS011;6573;57.696;11.950;2023-03-01T13:39:56;4.93;;;1.27;;
13014;SDS011;6573;57.696;11.950;2023-03-01T13:42:31;4.17;;;1.20;;
13014;SDS011;6573;57.696;11.950;2023-03-01T13:45:05;5.67;;;1.27;;
13014;SDS011;6573;57.696;11.950;2023-03-01T13:47:43;8.47;;;1.70;;
13014;SDS011;6573;57.696;11.950;2023-03-01T13:50:18;13.70;;;2.27;;
13014;SDS011;6573;57.696;11.950;2023-03-01T13:52:50;4.13;;;1.23;;
13014;SDS011;6573;57.696;11.950;2023-03-01T13:55:25;13.37;;;1.90;;
13014;SDS011;6573;57.696;11.950;2023-03-01T13:58:02;7.70;;;1.67;;
13014;SDS011;6573;57.696;11.950;2023-03-01T14:00:41;7.80;;;2.07;;
13014;SDS011;6573;57.696;11.950;2023-03-01T14:03:11;7.60;;;1.67;;
13014;SDS011;6573;57.696;11.950;2023-03-01T14:05:43;18.90;;;2.40;;
13014;SDS011;6573;57.696;11.950;2023-03-01T14:08:38;3.77;;;1.20;;
13014;SDS011;6573;57.696;11.950;2023-03-01T14:11:20;7.37;;;1.40;;
13014;SDS011;6573;57.696;11.950;2023-03-01T14:14:07;5.83;;;0.97;;
13014;SDS011;6573;57.696;11.950;2023-03-01T14:16:48;8.80;;;1.20;;
13014;SDS011;6573;57.696;11.950;2023-03-01T14:19:26;7.37;;;1.30;;
13014;SDS011;6573;57.696;11.950;2023-03-01T14:22:01;7.63;;;1.37;;
13014;SDS011;6573;57.696;11.950;2023-03-01T14:24:39;10.13;;;1.20;;
13014;SDS011;6573;57.696;11.950;2023-03-01T14:27:15;4.43;;;1.07;;
13014;SDS011;6573;57.696;11.950;2023-03-01T14:29:53;6.43;;;1.43;;
13014;SDS011;6573;57.696;11.950;2023-03-01T14:32:25;4.53;;;1.00;;
13014;SDS011;6573;57.696;11.950;2023-03-01T14:34:55;6.57;;;1.27;;
13014;SDS011;6573;57.696;11.950;2023-03-01T14:37:27;12.70;;;1.30;;
13014;SDS011;6573;57.696;11.950;2023-03-01T14:39:58;5.37;;;1.10;;
13014;SDS011;6573;57.696;11.950;2023-03-01T14:42:30;7.27;;;1.33;;
13014;SDS011;6573;57.696;11.950;2023-03-01T14:45:02;9.33;;;1.37;;
13014;SDS011;6573;57.696;11.950;2023-03-01T14:47:34;6.57;;;1.20;;
13014;SDS011;6573;57.696;11.950;2023-03-01T14:50:07;3.37;;;1.00;;
13014;SDS011;6573;57.696;11.950;2023-03-01T14:52:40;5.03;;;1.20;;
13014;SDS011;6573;57.696;11.950;2023-03-01T14:55:13;2.73;;;0.90;;
13014;SDS011;6573;57.696;11.950;2023-03-01T14:57:47;4.03;;;1.07;;
13014;SDS011;6573;57.696;11.950;2023-03-01T15:00:17;6.90;;;0.83;;
13014;SDS011;6573;57.696;11.950;2023-03-01T15:02:50;6.47;;;1.00;;
13014;SDS011;6573;57.696;11.950;2023-03-01T15:05:24;3.47;;;1.00;;
13014;SDS011;6573;57.696;11.950;2023-03-01T15:07:58;2.43;;;1.10;;
13014;SDS011;6573;57.696;11.950;2023-03-01T15:10:30;11.07;;;1.40;;
13014;SDS011;6573;57.696;11.950;2023-03-01T15:13:09;2.47;;;1.10;;
13014;SDS011;6573;57.696;11.950;2023-03-01T15:15:40;4.80;;;0.90;;
13014;SDS011;6573;57.696;11.950;2023-03-01T15:18:14;4.37;;;1.00;;
13014;SDS011;6573;57.696;11.950;2023-03-01T15:20:48;10.07;;;1.50;;
13014;SDS011;6573;57.696;11.950;2023-03-01T15:23:23;10.43;;;1.80;;
13014;SDS011;6573;57.696;11.950;2023-03-01T15:25:53;17.93;;;1.63;;
13014;SDS011;6573;57.696;11.950;2023-03-01T15:28:28;14.93;;;2.67;;
13014;SDS011;6573;57.696;11.950;2023-03-01T15:31:03;8.30;;;1.90;;
13014;SDS011;6573;57.696;11.950;2023-03-01T15:33:48;4.33;;;1.30;;
13014;SDS011;6573;57.696;11.950;2023-03-01T15:36:30;7.60;;;1.30;;
13014;SDS011;6573;57.696;11.950;2023-03-01T15:39:03;5.63;;;1.60;;